sensor_id;sensor_type;location;lat;lon;timestamp;pressure;altitude;pressure_sealevel;temperature;humidity
32298;BME280;18782;48.984;8.548;2023-05-12T00:01:12;99659.84;;;13.26;99.68
32298;BME280;18782;48.984;8.548;2023-05-12T00:03:40;99662.38;;;13.25;99.74
32298;BME280;18782;48.984;8.548;2023-05-12T00:06:08;99658.13;;;13.27;98.93
32298;BME280;18782;48.984;8.548;2023-05-12T00:08:36;99654.56;;;13.20;99.28
32298;BME280;18782;48.984;8.548;2023-05-12T00:11:05;99658.00;;;13.19;99.25
32298;BME280;18782;48.984;8.548;2023-05-12T00:13:32;99659.72;;;13.17;99.91
32298;BME280;18782;48.984;8.548;2023-05-12T00:16:01;99661.38;;;13.12;99.92
32298;BME280;18782;48.984;8.548;2023-05-12T00:18:29;99663.97;;;13.12;100.00
32298;BME280;18782;48.984;8.548;2023-05-12T00:20:56;99651.06;;;13.12;100.00
32298;BME280;18782;48.984;8.548;2023-05-12T00:23:24;99658.81;;;13.14;100.00
32298;BME280;18782;48.984;8.548;2023-05-12T00:25:51;99651.06;;;13.12;100.00
32298;BME280;18782;48.984;8.548;2023-05-12T00:28:20;99651.91;;;13.13;100.00
32298;BME280;18782;48.984;8.548;2023-05-12T00:30:48;99651.06;;;13.15;100.00
32298;BME280;18782;48.984;8.548;2023-05-12T00:33:15;99644.16;;;13.14;100.00
32298;BME280;18782;48.984;8.548;2023-05-12T00:35:43;99651.97;;;13.16;100.00
32298;BME280;18782;48.984;8.548;2023-05-12T00:38:11;99654.53;;;13.17;100.00
32298;BME280;18782;48.984;8.548;2023-05-12T00:40:39;99651.97;;;13.16;100.00
32298;BME280;18782;48.984;8.548;2023-05-12T00:43:07;99646.78;;;13.17;100.00
32298;BME280;18782;48.984;8.548;2023-05-12T00:45:36;99650.25;;;13.18;99.89
32298;BME280;18782;48.984;8.548;2023-05-12T00:48:05;99647.66;;;13.19;99.94
32298;BME280;18782;48.984;8.548;2023-05-12T00:50:33;99644.22;;;13.17;99.99
32298;BME280;18782;48.984;8.548;2023-05-12T00:53:01;99642.47;;;13.16;99.95
32298;BME280;18782;48.984;8.548;2023-05-12T00:55:28;99639.00;;;13.14;100.00
32298;BME280;18782;48.984;8.548;2023-05-12T00:57:57;99643.34;;;13.18;100.00
32298;BME280;18782;48.984;8.548;2023-05-12T01:00:26;99645.06;;;13.19;99.88
32298;BME280;18782;48.984;8.548;2023-05-12T01:02:55;99640.72;;;13.15;99.91
32298;BME280;18782;48.984;8.548;2023-05-12T01:05:30;99642.44;;;13.12;100.00
32298;BME280;18782;48.984;8.548;2023-05-12T01:07:59;99640.66;;;13.09;100.00
32298;BME280;18782;48.984;8.548;2023-05-12T01:10:27;99642.38;;;13.09;100.00
32298;BME280;18782;48.984;8.548;2023-05-12T01:12:55;99633.78;;;13.08;100.00
32298;BME280;18782;48.984;8.548;2023-05-12T01:15:23;99639.81;;;13.07;100.00
32298;BME280;18782;48.984;8.548;2023-05-12T01:17:57;99642.34;;;13.04;100.00
32298;BME280;18782;48.984;8.548;2023-05-12T01:20:29;99633.78;;;13.05;100.00
32298;BME280;18782;48.984;8.548;2023-05-12T01:23:01;99630.28;;;13.03;100.00
32298;BME280;18782;48.984;8.548;2023-05-12T01:25:30;99628.59;;;13.05;100.00
32298;BME280;18782;48.984;8.548;2023-05-12T01:28:03;99633.69;;;12.99;100.00
32298;BME280;18782;48.984;8.548;2023-05-12T01:30:31;99631.09;;;12.99;100.00
32298;BME280;18782;48.984;8.548;2023-05-12T01:33:00;99631.13;;;13.00;100.00
32298;BME280;18782;48.984;8.548;2023-05-12T01:35:28;99634.59;;;13.01;100.00
32298;BME280;18782;48.984;8.548;2023-05-12T01:37:58;99633.69;;;12.99;100.00
32298;BME280;18782;48.984;8.548;2023-05-12T01:40:26;99638.91;;;13.02;100.00
32298;BME280;18782;48.984;8.548;2023-05-12T01:42:55;99639.72;;;12.99;100.00
32298;BME280;18782;48.984;8.548;2023-05-12T01:45:26;99640.56;;;12.97;100.00
32298;BME280;18782;48.984;8.548;2023-05-12T01:47:53;99644.06;;;13.02;100.00
32298;BME280;18782;48.984;8.548;2023-05-12T01:50:21;99649.28;;;13.06;100.00
32298;BME280;18782;48.984;8.548;2023-05-12T02:04:30;99644.91;;;13.01;100.00
32298;BME280;18782;48.984;8.548;2023-05-12T02:06:59;99640.66;;;13.06;100.00
32298;BME280;18782;48.984;8.548;2023-05-12T02:09:27;99640.66;;;13.06;100.00
32298;BME280;18782;48.984;8.548;2023-05-12T02:11:59;99632.91;;;13.07;100.00
32298;BME280;18782;48.984;8.548;2023-05-12T02:14:27;99636.34;;;13.06;100.00
32298;BME280;18782;48.984;8.548;2023-05-12T02:16:57;99644.13;;;13.08;100.00
32298;BME280;18782;48.984;8.548;2023-05-12T02:19:24;99644.97;;;13.07;100.00
32298;BME280;18782;48.984;8.548;2023-05-12T02:21:55;99644.09;;;13.05;100.00
32298;BME280;18782;48.984;8.548;2023-05-12T02:24:23;99636.31;;;13.02;100.00
32298;BME280;18782;48.984;8.548;2023-05-12T02:26:51;99636.31;;;13.02;100.00
32298;BME280;18782;48.984;8.548;2023-05-12T02:29:18;99637.16;;;13.01;100.00
32298;BME280;18782;48.984;8.548;2023-05-12T02:31:47;99634.53;;;12.96;100.00
32298;BME280;18782;48.984;8.548;2023-05-12T02:34:15;99631.03;;;12.91;100.00
32298;BME280;18782;48.984;8.548;2023-05-12T02:36:43;99635.31;;;12.88;100.00
32298;BME280;18782;48.984;8.548;2023-05-12T02:39:12;99646.53;;;12.90;100.00
32298;BME280;18782;48.984;8.548;2023-05-12T02:41:40;99630.13;;;12.88;100.00
32298;BME280;18782;48.984;8.548;2023-05-12T02:44:07;99631.84;;;12.89;100.00
32298;BME280;18782;48.984;8.548;2023-05-12T02:46:35;99630.13;;;12.88;100.00
32298;BME280;18782;48.984;8.548;2023-05-12T02:49:03;99628.41;;;12.85;100.00
32298;BME280;18782;48.984;8.548;2023-05-12T02:51:30;99627.53;;;12.86;100.00
32298;BME280;18782;48.984;8.548;2023-05-12T02:53:58;99631.84;;;12.86;100.00
32298;BME280;18782;48.984;8.548;2023-05-12T02:56:28;99635.25;;;12.83;100.00
32298;BME280;18782;48.984;8.548;2023-05-12T02:58:59;99624.88;;;12.78;100.00
32298;BME280;18782;48.984;8.548;2023-05-12T03:01:27;99630.03;;;12.78;100.00
32298;BME280;18782;48.984;8.548;2023-05-12T03:03:54;99631.81;;;12.83;100.00
32298;BME280;18782;48.984;8.548;2023-05-12T03:06:22;99638.75;;;12.87;100.00
32298;BME280;18782;48.984;8.548;2023-05-12T03:08:50;99640.47;;;12.88;100.00
32298;BME280;18782;48.984;8.548;2023-05-12T03:11:17;99635.31;;;12.88;100.00
32298;BME280;18782;48.984;8.548;2023-05-12T03:13:47;99637.00;;;12.86;100.00
32298;BME280;18782;48.984;8.548;2023-05-12T03:16:14;99636.97;;;12.83;100.00
32298;BME280;18782;48.984;8.548;2023-05-12T03:18:46;99636.09;;;12.79;100.00
32298;BME280;18782;48.984;8.548;2023-05-12T03:21:14;99636.91;;;12.76;100.00
32298;BME280;18782;48.984;8.548;2023-05-12T03:23:42;99636.03;;;12.74;100.00
32298;BME280;18782;48.984;8.548;2023-05-12T03:26:09;99641.16;;;12.71;100.00
32298;BME280;18782;48.984;8.548;2023-05-12T03:28:37;99644.59;;;12.70;100.00
32298;BME280;18782;48.984;8.548;2023-05-12T03:31:06;99633.38;;;12.68;100.00
32298;BME280;18782;48.984;8.548;2023-05-12T03:33:34;99641.97;;;12.67;100.00
32298;BME280;18782;48.984;8.548;2023-05-12T03:36:02;99637.66;;;12.68;100.00
32298;BME280;18782;48.984;8.548;2023-05-12T03:38:31;99632.53;;;12.69;100.00
32298;BME280;18782;48.984;8.548;2023-05-12T03:41:02;99631.63;;;12.67;100.00
32298;BME280;18782;48.984;8.548;2023-05-12T03:43:31;99631.63;;;12.64;100.00
32298;BME280;18782;48.984;8.548;2023-05-12T03:45:59;99635.00;;;12.60;100.00
32298;BME280;18782;48.984;8.548;2023-05-12T03:48:28;99634.94;;;12.54;100.00
32298;BME280;18782;48.984;8.548;2023-05-12T03:50:56;99636.63;;;12.52;100.00
32298;BME280;18782;48.984;8.548;2023-05-12T03:53:23;99636.59;;;12.49;100.00
32298;BME280;18782;48.984;8.548;2023-05-12T03:55:51;99636.56;;;12.46;100.00
32298;BME280;18782;48.984;8.548;2023-05-12T03:58:19;99635.72;;;12.47;100.00
32298;BME280;18782;48.984;8.548;2023-05-12T04:00:46;99628.81;;;12.46;100.00
32298;BME280;18782;48.984;8.548;2023-05-12T04:03:15;99634.00;;;12.47;100.00
32298;BME280;18782;48.984;8.548;2023-05-12T04:05:44;99634.88;;;12.48;100.00
32298;BME280;18782;48.984;8.548;2023-05-12T04:08:13;99633.13;;;12.47;100.00
32298;BME280;18782;48.984;8.548;2023-05-12T04:10:41;99636.59;;;12.49;100.00
32298;BME280;18782;48.984;8.548;2023-05-12T04:13:08;99638.38;;;12.53;100.00
32298;BME280;18782;48.984;8.548;2023-05-12T04:15:36;99643.56;;;12.53;100.00
32298;BME280;18782;48.984;8.548;2023-05-12T04:18:04;99650.44;;;12.54;100.00
32298;BME280;18782;48.984;8.548;2023-05-12T04:20:31;99646.16;;;12.58;100.00
32298;BME280;18782;48.984;8.548;2023-05-12T04:23:01;99640.19;;;12.60;100.00
32298;BME280;18782;48.984;8.548;2023-05-12T04:25:29;99647.06;;;12.61;100.00
32298;BME280;18782;48.984;8.548;2023-05-12T04:27:56;99646.25;;;12.65;100.00
32298;BME280;18782;48.984;8.548;2023-05-12T04:30:24;99641.97;;;12.67;100.00
32298;BME280;18782;48.984;8.548;2023-05-12T04:32:52;99645.44;;;12.69;100.00
32298;BME280;18782;48.984;8.548;2023-05-12T04:35:20;99638.56;;;12.71;100.00
32298;BME280;18782;48.984;8.548;2023-05-12T04:37:48;99645.47;;;12.72;99.67
32298;BME280;18782;48.984;8.548;2023-05-12T04:40:17;99645.47;;;12.72;99.12
32298;BME280;18782;48.984;8.548;2023-05-12T04:42:45;99636.91;;;12.75;99.52
32298;BME280;18782;48.984;8.548;2023-05-12T04:45:14;99639.44;;;12.72;99.74
32298;BME280;18782;48.984;8.548;2023-05-12T04:47:41;99642.88;;;12.71;99.47
32298;BME280;18782;48.984;8.548;2023-05-12T04:50:10;99640.28;;;12.69;99.56
32298;BME280;18782;48.984;8.548;2023-05-12T04:52:38;99643.69;;;12.67;99.88
32298;BME280;18782;48.984;8.548;2023-05-12T04:55:06;99653.16;;;12.66;100.00
32298;BME280;18782;48.984;8.548;2023-05-12T04:57:35;99652.28;;;12.67;100.00
32298;BME280;18782;48.984;8.548;2023-05-12T05:00:09;99649.72;;;12.67;100.00
32298;BME280;18782;48.984;8.548;2023-05-12T05:02:37;99660.94;;;12.69;100.00
32298;BME280;18782;48.984;8.548;2023-05-12T05:05:06;99658.44;;;12.75;100.00
32298;BME280;18782;48.984;8.548;2023-05-12T05:07:34;99661.88;;;12.77;99.33
32298;BME280;18782;48.984;8.548;2023-05-12T05:10:02;99661.03;;;12.78;99.72
32298;BME280;18782;48.984;8.548;2023-05-12T05:12:30;99663.72;;;12.88;99.81
32298;BME280;18782;48.984;8.548;2023-05-12T05:14:59;99656.03;;;12.94;99.17
32298;BME280;18782;48.984;8.548;2023-05-12T05:17:27;99662.03;;;12.93;99.16
32298;BME280;18782;48.984;8.548;2023-05-12T05:19:55;99665.53;;;12.95;98.83
32298;BME280;18782;48.984;8.548;2023-05-12T05:22:28;99671.56;;;12.97;98.44
32298;BME280;18782;48.984;8.548;2023-05-12T05:24:56;99669.94;;;13.05;98.00
32298;BME280;18782;48.984;8.548;2023-05-12T05:27:24;99669.13;;;13.11;96.94
32298;BME280;18782;48.984;8.548;2023-05-12T05:29:52;99662.25;;;13.11;97.06
32298;BME280;18782;48.984;8.548;2023-05-12T05:32:21;99669.97;;;13.08;96.74
32298;BME280;18782;48.984;8.548;2023-05-12T05:34:48;99669.13;;;13.12;96.90
32298;BME280;18782;48.984;8.548;2023-05-12T05:37:17;99664.03;;;13.18;96.98
32298;BME280;18782;48.984;8.548;2023-05-12T05:39:45;99677.88;;;13.23;96.88
32298;BME280;18782;48.984;8.548;2023-05-12T05:42:12;99665.84;;;13.25;96.12
32298;BME280;18782;48.984;8.548;2023-05-12T05:44:41;99678.81;;;13.30;95.72
32298;BME280;18782;48.984;8.548;2023-05-12T05:47:12;99671.94;;;13.32;95.75
32298;BME280;18782;48.984;8.548;2023-05-12T05:49:41;99678.84;;;13.31;95.34
32298;BME280;18782;48.984;8.548;2023-05-12T05:52:09;99670.19;;;13.29;95.92
32298;BME280;18782;48.984;8.548;2023-05-12T05:54:37;99676.22;;;13.28;95.43
32298;BME280;18782;48.984;8.548;2023-05-12T05:57:05;99675.41;;;13.32;95.41
32298;BME280;18782;48.984;8.548;2023-05-12T05:59:33;99682.34;;;13.40;96.19
32298;BME280;18782;48.984;8.548;2023-05-12T06:02:01;99689.31;;;13.50;95.21
32298;BME280;18782;48.984;8.548;2023-05-12T06:04:29;99684.25;;;13.59;95.06
32298;BME280;18782;48.984;8.548;2023-05-12T06:06:58;99686.06;;;13.72;94.69
32298;BME280;18782;48.984;8.548;2023-05-12T06:09:26;99691.34;;;13.84;93.65
32298;BME280;18782;48.984;8.548;2023-05-12T06:11:53;99691.41;;;13.95;92.81
32298;BME280;18782;48.984;8.548;2023-05-12T06:14:21;99689.69;;;13.96;92.34
32298;BME280;18782;48.984;8.548;2023-05-12T06:16:48;99692.34;;;14.05;92.40
32298;BME280;18782;48.984;8.548;2023-05-12T06:19:16;99686.28;;;14.09;91.12
32298;BME280;18782;48.984;8.548;2023-05-12T06:21:44;99692.41;;;14.17;91.69
32298;BME280;18782;48.984;8.548;2023-05-12T06:24:13;99698.56;;;14.39;94.08
32298;BME280;18782;48.984;8.548;2023-05-12T06:26:41;99691.81;;;14.67;92.12
32298;BME280;18782;48.984;8.548;2023-05-12T06:29:08;99692.72;;;14.87;91.32
32298;BME280;18782;48.984;8.548;2023-05-12T06:31:36;99705.75;;;15.06;87.33
32298;BME280;18782;48.984;8.548;2023-05-12T06:34:04;99697.97;;;15.13;86.47
32298;BME280;18782;48.984;8.548;2023-05-12T06:36:31;99704.03;;;15.05;86.39
32298;BME280;18782;48.984;8.548;2023-05-12T06:38:59;99704.88;;;15.07;86.58
32298;BME280;18782;48.984;8.548;2023-05-12T06:41:28;99706.63;;;15.23;87.23
32298;BME280;18782;48.984;8.548;2023-05-12T06:43:56;99705.78;;;15.33;86.59
32298;BME280;18782;48.984;8.548;2023-05-12T06:46:26;99707.53;;;15.50;86.28
32298;BME280;18782;48.984;8.548;2023-05-12T06:48:54;99709.28;;;15.51;85.92
32298;BME280;18782;48.984;8.548;2023-05-12T06:51:22;99711.00;;;15.53;85.61
32298;BME280;18782;48.984;8.548;2023-05-12T06:53:50;99716.19;;;15.58;84.83
32298;BME280;18782;48.984;8.548;2023-05-12T06:56:17;99701.53;;;15.63;85.14
32298;BME280;18782;48.984;8.548;2023-05-12T06:58:46;99707.56;;;15.71;84.64
32298;BME280;18782;48.984;8.548;2023-05-12T07:01:14;99712.75;;;15.86;84.46
32298;BME280;18782;48.984;8.548;2023-05-12T07:03:42;99706.69;;;15.95;81.82
32298;BME280;18782;48.984;8.548;2023-05-12T07:06:10;99707.53;;;16.02;80.87
32298;BME280;18782;48.984;8.548;2023-05-12T07:08:37;99707.56;;;16.05;81.47
32298;BME280;18782;48.984;8.548;2023-05-12T07:11:06;99713.59;;;16.11;81.44
32298;BME280;18782;48.984;8.548;2023-05-12T07:13:33;99715.31;;;16.20;80.45
32298;BME280;18782;48.984;8.548;2023-05-12T07:16:03;99703.19;;;16.22;78.41
32298;BME280;18782;48.984;8.548;2023-05-12T07:18:30;99716.19;;;16.13;78.30
32298;BME280;18782;48.984;8.548;2023-05-12T07:20:58;99712.69;;;16.26;79.21
32298;BME280;18782;48.984;8.548;2023-05-12T07:23:26;99712.72;;;16.29;79.03
32298;BME280;18782;48.984;8.548;2023-05-12T07:25:53;99717.03;;;16.29;77.37
32298;BME280;18782;48.984;8.548;2023-05-12T07:28:21;99709.22;;;16.33;77.29
32298;BME280;18782;48.984;8.548;2023-05-12T07:30:49;99717.91;;;16.29;nan
32298;BME280;18782;48.984;8.548;2023-05-12T07:33:18;99713.56;;;16.28;77.65
32298;BME280;18782;48.984;8.548;2023-05-12T07:35:45;99710.09;;;16.35;78.90
32298;BME280;18782;48.984;8.548;2023-05-12T07:38:13;99708.34;;;16.45;78.31
32298;BME280;18782;48.984;8.548;2023-05-12T07:40:41;99716.13;;;16.47;78.30
32298;BME280;18782;48.984;8.548;2023-05-12T07:43:10;99707.41;;;16.57;78.97
32298;BME280;18782;48.984;8.548;2023-05-12T07:45:37;99710.84;;;16.65;78.90
32298;BME280;18782;48.984;8.548;2023-05-12T07:48:05;99710.84;;;16.74;77.39
32298;BME280;18782;48.984;8.548;2023-05-12T07:50:34;99714.25;;;16.85;77.96
32298;BME280;18782;48.984;8.548;2023-05-12T07:53:02;99710.81;;;16.86;77.01
32298;BME280;18782;48.984;8.548;2023-05-12T07:55:29;99710.81;;;16.86;76.13
32298;BME280;18782;48.984;8.548;2023-05-12T07:57:58;99709.94;;;16.84;75.68
32298;BME280;18782;48.984;8.548;2023-05-12T08:00:26;99711.69;;;16.79;76.78
32298;BME280;18782;48.984;8.548;2023-05-12T08:02:54;99699.50;;;16.92;76.92
32298;BME280;18782;48.984;8.548;2023-05-12T08:05:22;99708.09;;;17.02;76.13
32298;BME280;18782;48.984;8.548;2023-05-12T08:07:51;99704.69;;;16.97;74.38
32298;BME280;18782;48.984;8.548;2023-05-12T08:10:19;99702.88;;;17.02;75.01
32298;BME280;18782;48.984;8.548;2023-05-12T08:12:46;99708.09;;;17.05;75.06
32298;BME280;18782;48.984;8.548;2023-05-12T08:15:14;99708.88;;;17.19;73.62
32298;BME280;18782;48.984;8.548;2023-05-12T08:17:41;99701.88;;;17.30;74.59
32298;BME280;18782;48.984;8.548;2023-05-12T08:20:10;99702.72;;;17.28;73.06
32298;BME280;18782;48.984;8.548;2023-05-12T08:22:37;99707.03;;;17.36;72.56
32298;BME280;18782;48.984;8.548;2023-05-12T08:25:07;99707.13;;;17.24;71.99
32298;BME280;18782;48.984;8.548;2023-05-12T08:27:38;99705.34;;;17.26;72.54
32298;BME280;18782;48.984;8.548;2023-05-12T08:30:06;99712.22;;;17.39;72.32
32298;BME280;18782;48.984;8.548;2023-05-12T08:32:34;99706.06;;;17.50;72.86
32298;BME280;18782;48.984;8.548;2023-05-12T08:35:01;99708.78;;;17.34;72.20
32298;BME280;18782;48.984;8.548;2023-05-12T08:37:30;99708.78;;;17.34;71.68
32298;BME280;18782;48.984;8.548;2023-05-12T08:40:00;99708.69;;;17.43;72.28
32298;BME280;18782;48.984;8.548;2023-05-12T08:42:36;99712.22;;;17.39;71.56
32298;BME280;18782;48.984;8.548;2023-05-12T08:45:05;99713.03;;;17.43;72.39
32298;BME280;18782;48.984;8.548;2023-05-12T08:47:34;99721.72;;;17.42;71.74
32298;BME280;18782;48.984;8.548;2023-05-12T08:50:04;99715.72;;;17.32;72.15
32298;BME280;18782;48.984;8.548;2023-05-12T08:52:33;99719.31;;;17.17;71.48
32298;BME280;18782;48.984;8.548;2023-05-12T08:55:02;99722.88;;;16.93;73.98
32298;BME280;18782;48.984;8.548;2023-05-12T08:57:32;99723.75;;;16.89;74.15
32298;BME280;18782;48.984;8.548;2023-05-12T09:00:01;99726.41;;;16.83;74.66
32298;BME280;18782;48.984;8.548;2023-05-12T09:02:30;99724.72;;;16.73;75.68
32298;BME280;18782;48.984;8.548;2023-05-12T09:05:17;99718.59;;;16.86;74.73
32298;BME280;18782;48.984;8.548;2023-05-12T09:07:45;99729.00;;;16.83;74.20
32298;BME280;18782;48.984;8.548;2023-05-12T09:10:17;99725.50;;;16.90;73.80
32298;BME280;18782;48.984;8.548;2023-05-12T09:13:05;99727.25;;;16.85;73.87
32298;BME280;18782;48.984;8.548;2023-05-12T09:15:38;99725.50;;;16.92;73.82
32298;BME280;18782;48.984;8.548;2023-05-12T09:18:07;99726.41;;;16.80;75.34
32298;BME280;18782;48.984;8.548;2023-05-12T09:20:35;99729.00;;;16.76;74.94
32298;BME280;18782;48.984;8.548;2023-05-12T09:23:13;99726.47;;;16.71;75.42
32298;BME280;18782;48.984;8.548;2023-05-12T09:25:41;99721.22;;;16.65;75.13
32298;BME280;18782;48.984;8.548;2023-05-12T09:28:10;99729.94;;;16.52;76.29
32298;BME280;18782;48.984;8.548;2023-05-12T09:30:38;99726.47;;;16.53;76.75
32298;BME280;18782;48.984;8.548;2023-05-12T09:33:08;99732.56;;;16.42;77.63
32298;BME280;18782;48.984;8.548;2023-05-12T09:35:37;99726.50;;;16.47;80.06
32298;BME280;18782;48.984;8.548;2023-05-12T09:38:06;99728.25;;;16.38;80.19
32298;BME280;18782;48.984;8.548;2023-05-12T09:40:33;99729.16;;;16.34;78.72
32298;BME280;18782;48.984;8.548;2023-05-12T09:43:02;99726.56;;;16.24;79.47
32298;BME280;18782;48.984;8.548;2023-05-12T09:45:33;99725.72;;;16.20;81.13
32298;BME280;18782;48.984;8.548;2023-05-12T09:48:07;99730.03;;;16.18;82.20
32298;BME280;18782;48.984;8.548;2023-05-12T09:50:43;99725.69;;;16.12;82.31
32298;BME280;18782;48.984;8.548;2023-05-12T09:53:13;99728.31;;;16.20;83.09
32298;BME280;18782;48.984;8.548;2023-05-12T09:55:42;99719.63;;;16.26;82.29
32298;BME280;18782;48.984;8.548;2023-05-12T09:58:14;99729.16;;;16.34;81.93
32298;BME280;18782;48.984;8.548;2023-05-12T10:00:43;99723.91;;;16.43;81.71
32298;BME280;18782;48.984;8.548;2023-05-12T10:03:16;99728.22;;;16.51;80.99
32298;BME280;18782;48.984;8.548;2023-05-12T10:05:48;99733.41;;;16.61;82.65
32298;BME280;18782;48.984;8.548;2023-05-12T10:08:19;99732.50;;;16.76;82.01
32298;BME280;18782;48.984;8.548;2023-05-12T10:10:48;99731.56;;;16.92;79.41
32298;BME280;18782;48.984;8.548;2023-05-12T10:13:17;99726.28;;;17.05;75.98
32298;BME280;18782;48.984;8.548;2023-05-12T10:15:47;99724.50;;;17.19;75.33
32298;BME280;18782;48.984;8.548;2023-05-12T10:18:16;99731.28;;;17.40;74.62
32298;BME280;18782;48.984;8.548;2023-05-12T10:20:44;99728.56;;;17.57;73.96
32298;BME280;18782;48.984;8.548;2023-05-12T10:23:12;99727.50;;;17.87;74.45
32298;BME280;18782;48.984;8.548;2023-05-12T10:25:42;99727.44;;;17.91;73.28
32298;BME280;18782;48.984;8.548;2023-05-12T10:28:10;99728.19;;;18.07;69.24
32298;BME280;18782;48.984;8.548;2023-05-12T10:30:39;99731.44;;;18.26;69.52
32298;BME280;18782;48.984;8.548;2023-05-12T10:33:08;99735.81;;;18.24;68.45
32298;BME280;18782;48.984;8.548;2023-05-12T10:35:38;99722.59;;;18.41;69.26
32298;BME280;18782;48.984;8.548;2023-05-12T10:38:06;99722.69;;;18.33;70.29
32298;BME280;18782;48.984;8.548;2023-05-12T10:40:35;99723.53;;;18.35;69.86
32298;BME280;18782;48.984;8.548;2023-05-12T10:43:02;99717.56;;;18.27;70.74
32298;BME280;18782;48.984;8.548;2023-05-12T10:45:34;99722.69;;;18.35;70.68
32298;BME280;18782;48.984;8.548;2023-05-12T10:48:06;99716.53;;;18.40;70.37
32298;BME280;18782;48.984;8.548;2023-05-12T10:50:36;99721.91;;;18.25;70.07
32298;BME280;18782;48.984;8.548;2023-05-12T10:53:03;99714.84;;;18.36;69.77
32298;BME280;18782;48.984;8.548;2023-05-12T10:55:33;99713.88;;;18.45;68.92
32298;BME280;18782;48.984;8.548;2023-05-12T10:58:06;99713.19;;;18.29;69.21
32298;BME280;18782;48.984;8.548;2023-05-12T11:00:46;99715.06;;;18.15;69.48
32298;BME280;18782;48.984;8.548;2023-05-12T11:03:17;99715.88;;;18.20;69.79
32298;BME280;18782;48.984;8.548;2023-05-12T11:05:59;99708.94;;;18.20;69.88
32298;BME280;18782;48.984;8.548;2023-05-12T11:08:28;99713.19;;;18.29;70.25
32298;BME280;18782;48.984;8.548;2023-05-12T11:10:57;99710.56;;;18.31;69.20
32298;BME280;18782;48.984;8.548;2023-05-12T11:13:25;99714.84;;;18.36;69.58
32298;BME280;18782;48.984;8.548;2023-05-12T11:15:55;99720.09;;;18.33;69.74
32298;BME280;18782;48.984;8.548;2023-05-12T11:18:23;99711.03;;;18.65;68.99
32298;BME280;18782;48.984;8.548;2023-05-12T11:20:51;99720.47;;;18.80;68.12
32298;BME280;18782;48.984;8.548;2023-05-12T11:23:26;99722.88;;;18.93;67.06
32298;BME280;18782;48.984;8.548;2023-05-12T11:25:55;99718.31;;;19.11;66.84
32298;BME280;18782;48.984;8.548;2023-05-12T11:28:24;99729.66;;;19.07;67.13
32298;BME280;18782;48.984;8.548;2023-05-12T11:30:52;99728.13;;;18.92;67.83
32298;BME280;18782;48.984;8.548;2023-05-12T11:33:21;99725.44;;;18.95;69.45
32298;BME280;18782;48.984;8.548;2023-05-12T11:35:49;99734.06;;;19.03;69.99
32298;BME280;18782;48.984;8.548;2023-05-12T11:38:18;99731.59;;;18.89;67.47
32298;BME280;18782;48.984;8.548;2023-05-12T11:40:51;99721.31;;;18.80;69.69
32298;BME280;18782;48.984;8.548;2023-05-12T11:43:19;99727.34;;;18.84;68.96
32298;BME280;18782;48.984;8.548;2023-05-12T11:45:47;99727.28;;;18.88;69.39
32298;BME280;18782;48.984;8.548;2023-05-12T11:48:14;99723.94;;;18.80;68.44
32298;BME280;18782;48.984;8.548;2023-05-12T11:50:44;99725.69;;;18.76;68.29
32298;BME280;18782;48.984;8.548;2023-05-12T11:53:14;99721.44;;;18.68;67.69
32298;BME280;18782;48.984;8.548;2023-05-12T11:55:49;99730.00;;;18.79;67.19
32298;BME280;18782;48.984;8.548;2023-05-12T11:58:19;99725.91;;;19.24;67.53
32298;BME280;18782;48.984;8.548;2023-05-12T12:00:48;99727.00;;;19.70;66.34
32298;BME280;18782;48.984;8.548;2023-05-12T12:03:16;99721.09;;;20.10;64.52
32298;BME280;18782;48.984;8.548;2023-05-12T12:05:56;99723.47;;;20.23;63.97
32298;BME280;18782;48.984;8.548;2023-05-12T12:08:25;99720.13;;;20.62;63.09
32298;BME280;18782;48.984;8.548;2023-05-12T12:10:53;99723.91;;;20.48;61.33
32298;BME280;18782;48.984;8.548;2023-05-12T12:13:22;99722.75;;;20.63;62.40
32298;BME280;18782;48.984;8.548;2023-05-12T12:15:51;99729.59;;;20.69;62.68
32298;BME280;18782;48.984;8.548;2023-05-12T12:18:19;99731.63;;;20.96;60.76
32298;BME280;18782;48.984;8.548;2023-05-12T12:20:46;99730.19;;;20.83;59.72
32298;BME280;18782;48.984;8.548;2023-05-12T12:23:14;99732.97;;;20.74;61.26
32298;BME280;18782;48.984;8.548;2023-05-12T12:25:42;99729.19;;;20.89;60.50
32298;BME280;18782;48.984;8.548;2023-05-12T12:28:10;99729.44;;;21.17;58.53
32298;BME280;18782;48.984;8.548;2023-05-12T12:30:39;99727.63;;;21.19;58.15
32298;BME280;18782;48.984;8.548;2023-05-12T12:33:07;99729.16;;;21.29;58.22
32298;BME280;18782;48.984;8.548;2023-05-12T12:35:34;99739.09;;;21.53;58.47
32298;BME280;18782;48.984;8.548;2023-05-12T12:38:02;99738.88;;;21.24;57.29
32298;BME280;18782;48.984;8.548;2023-05-12T12:40:30;99739.03;;;21.56;56.08
32298;BME280;18782;48.984;8.548;2023-05-12T12:42:57;99737.38;;;21.52;56.34
32298;BME280;18782;48.984;8.548;2023-05-12T12:45:25;99730.84;;;21.33;57.30
32298;BME280;18782;48.984;8.548;2023-05-12T12:47:54;99742.03;;;20.99;58.43
32298;BME280;18782;48.984;8.548;2023-05-12T12:50:21;99733.97;;;20.67;58.46
32298;BME280;18782;48.984;8.548;2023-05-12T12:52:52;99734.72;;;20.27;61.41
32298;BME280;18782;48.984;8.548;2023-05-12T12:55:20;99739.75;;;19.88;65.17
32298;BME280;18782;48.984;8.548;2023-05-12T12:57:48;99736.41;;;19.80;66.39
32298;BME280;18782;48.984;8.548;2023-05-12T13:00:16;99745.69;;;19.42;67.99
32298;BME280;18782;48.984;8.548;2023-05-12T13:02:44;99741.50;;;19.29;69.30
32298;BME280;18782;48.984;8.548;2023-05-12T13:05:14;99747.00;;;19.11;71.17
32298;BME280;18782;48.984;8.548;2023-05-12T13:07:41;99753.88;;;19.15;72.08
32298;BME280;18782;48.984;8.548;2023-05-12T13:10:10;99751.44;;;19.06;70.61
32298;BME280;18782;48.984;8.548;2023-05-12T13:12:38;99745.44;;;18.97;72.21
32298;BME280;18782;48.984;8.548;2023-05-12T13:15:07;99742.03;;;18.89;72.47
32298;BME280;18782;48.984;8.548;2023-05-12T13:17:35;99737.84;;;18.77;73.65